^^
Meteo Knjazevac Station Historical Data
Daily Summary for June 22, 2021 Units:  Both    English   Metric
Daily Weekly Monthly Yearly Custom
  High: Low: Average:
Temperature: 62.2 °F /  16.8 °C 58.8 °F /  14.9 °C 60.6 °F /  15.9 °C
Dew Point: 59 °F /  15 °C 57.1 °F /  13.9 °C 58.1 °F /  14.5 °C
Humidity: 94% 89% 91%
Wind Speed: 2mph /  3.2km/h - 0.6mph /  1km/h
Wind Gust: 5mph /  8km/h - -
Wind- - South
Pressure: 30.16 in /  1021.2 hPa 30.15 in /  1020.9 hPa -
Precipitation: 0.00 in /  0 mm    
Historical Graphs
 
 
Tabular Data for June 22, 2021
Time Temperature Dew Point Pressure Wind Wind Speed Wind Gust Humidity Rainfall Rate (Hourly) solar Conditions
00:00 62.2 °F /  16.8 °C 59 °F /  15 °C 30.16in /  1021.2hPa Calm   2mph /  3.2km/h 89% 0.00in /  0mm 0 W/m2
00:10 62.1 °F /  16.7 °C 58.8 °F /  14.9 °C 30.15in /  1020.9hPa Calm   2mph /  3.2km/h 89% 0.00in /  0mm 0 W/m2
00:20 61.9 °F /  16.6 °C 58.6 °F /  14.8 °C 30.16in /  1021.2hPa SSE 2mph /  3.2km/h 4mph /  6.4km/h 89% 0.00in /  0mm 0 W/m2
00:30 61.7 °F /  16.5 °C 58.7 °F /  14.8 °C 30.16in /  1021.2hPa SW 1mph /  1.6km/h 3mph /  4.8km/h 90% 0.00in /  0mm 0 W/m2
00:40 61.5 °F /  16.4 °C 58.6 °F /  14.8 °C 30.16in /  1021.2hPa SSW 2mph /  3.2km/h 5mph /  8km/h 90% 0.00in /  0mm 0 W/m2
00:50 61.3 °F /  16.3 °C 58.4 °F /  14.7 °C 30.16in /  1021.2hPa Calm   4mph /  6.4km/h 90% 0.00in /  0mm 0 W/m2
01:00 61.2 °F /  16.2 °C 58.2 °F /  14.6 °C 30.16in /  1021.2hPa Calm   2mph /  3.2km/h 90% 0.00in /  0mm 0 W/m2
01:10 61.2 °F /  16.2 °C 58.2 °F /  14.6 °C 30.16in /  1021.2hPa SE 1mph /  1.6km/h 5mph /  8km/h 90% 0.00in /  0mm 0 W/m2
01:20 61.1 °F /  16.2 °C 58.1 °F /  14.5 °C 30.16in /  1021.2hPa Calm   2mph /  3.2km/h 90% 0.00in /  0mm 0 W/m2
01:30 61 °F /  16.1 °C 58.3 °F /  14.6 °C 30.16in /  1021.2hPa ESE 1mph /  1.6km/h 5mph /  8km/h 91% 0.00in /  0mm 0 W/m2
01:40 60.9 °F /  16.1 °C 58.3 °F /  14.6 °C 30.16in /  1021.2hPa SW 1mph /  1.6km/h 2mph /  3.2km/h 91% 0.00in /  0mm 0 W/m2
01:50 60.7 °F /  15.9 °C 58.1 °F /  14.5 °C 30.16in /  1021.2hPa ENE 1mph /  1.6km/h 4mph /  6.4km/h 91% 0.00in /  0mm 0 W/m2
02:00 60.6 °F /  15.9 °C 58 °F /  14.4 °C 30.16in /  1021.2hPa Calm   2mph /  3.2km/h 91% 0.00in /  0mm 0 W/m2
02:10 60.4 °F /  15.8 °C 57.8 °F /  14.3 °C 30.16in /  1021.2hPa North 1mph /  1.6km/h 2mph /  3.2km/h 91% 0.00in /  0mm 0 W/m2
02:20 60.3 °F /  15.7 °C 58.2 °F /  14.6 °C 30.16in /  1021.2hPa South 1mph /  1.6km/h 3mph /  4.8km/h 93% 0.00in /  0mm 0 W/m2
02:30 60.1 °F /  15.6 °C 58 °F /  14.4 °C 30.15in /  1020.9hPa East 1mph /  1.6km/h 3mph /  4.8km/h 93% 0.00in /  0mm 0 W/m2
02:40 59.9 °F /  15.5 °C 57.9 °F /  14.4 °C 30.16in /  1021.2hPa Calm   1mph /  1.6km/h 93% 0.00in /  0mm 0 W/m2
02:50 59.7 °F /  15.4 °C 57.7 °F /  14.3 °C 30.15in /  1020.9hPa Calm   2mph /  3.2km/h 93% 0.00in /  0mm 0 W/m2
03:00 59.5 °F /  15.3 °C 57.5 °F /  14.2 °C 30.15in /  1020.9hPa Calm   4mph /  6.4km/h 93% 0.00in /  0mm 0 W/m2
03:10 59.4 °F /  15.2 °C 57.6 °F /  14.2 °C 30.15in /  1020.9hPa Calm   2mph /  3.2km/h 94% 0.00in /  0mm 0 W/m2
03:20 59.2 °F /  15.1 °C 57.5 °F /  14.2 °C 30.15in /  1020.9hPa Calm   2mph /  3.2km/h 94% 0.00in /  0mm 0 W/m2
03:30 59 °F /  15 °C 57.3 °F /  14.1 °C 30.15in /  1020.9hPa SSE 1mph /  1.6km/h 3mph /  4.8km/h 94% 0.00in /  0mm 0 W/m2
03:40 58.8 °F /  14.9 °C 57.1 °F /  13.9 °C 30.15in /  1020.9hPa NNW 1mph /  1.6km/h 4mph /  6.4km/h 94% 0.00in /  0mm 0 W/m2
Knjazevac, Serbia
Compliments of Weather Underground - 2 mb